Foraker, Kentucky
Current Conditions -  °F | °C
As of 9:53 AM on Wednesday 26 Nov 2014 (Local Time) from KJKL Reporting Station
Overcast Overcast  
Wind Chill: 31°   Ceiling: 5500
Heat Index: 36°   Visibility: 10mi
Dew Point: 27°   Wind: 6mph
Humidity: 70%   Direction: 300°WNW
Pressure: 30.08"   Gusts: NA
Location:  37.7261°N, 83.0786°W
Report Text: KJKL 261453Z AUTO 30005KT 10SM OVC055 02/M03 A3008 RMK AO2 SLP191 T00221028 53024
Loading
Personal Weather Stations






























Interactive Weather Map New forecast layout! Learn more

10-Day Weather Forecast

Advertisements
Track Severe Weather on mobile